createdAt,value
2023-04-02T00:15:31.852Z,19.0
2023-04-02T00:35:31.697Z,19.0
2023-04-02T00:55:31.639Z,19.0
2023-04-02T01:15:31.732Z,19.0
2023-04-02T01:35:31.739Z,18.9
2023-04-02T01:55:31.592Z,18.9
2023-04-02T02:15:31.584Z,18.9
2023-04-02T02:35:31.661Z,18.8
2023-04-02T02:55:31.483Z,18.8
2023-04-02T03:15:31.485Z,18.8
2023-04-02T03:35:31.557Z,18.8
2023-04-02T03:55:31.456Z,18.7
2023-04-02T04:15:31.422Z,18.7
2023-04-02T04:35:31.392Z,18.7
2023-04-02T04:55:31.507Z,19.0
2023-04-02T05:15:31.305Z,19.1
2023-04-02T05:35:31.463Z,19.3
2023-04-02T05:55:31.370Z,19.4
2023-04-02T06:15:31.347Z,19.4
2023-04-02T06:35:31.274Z,19.5
2023-04-02T06:55:31.328Z,19.6
2023-04-02T07:15:31.175Z,19.6
2023-04-02T07:35:31.322Z,19.7
2023-04-02T07:55:31.302Z,19.8
2023-04-02T08:15:31.270Z,19.8
2023-04-02T08:35:31.097Z,19.8
2023-04-02T08:55:31.136Z,19.9
2023-04-02T09:15:31.263Z,19.9
2023-04-02T09:35:31.044Z,19.9
2023-04-02T09:55:31.121Z,20.0
2023-04-02T10:15:31.075Z,20.1
2023-04-02T10:35:31.015Z,20.1
2023-04-02T10:55:30.961Z,20.0
2023-04-02T11:15:30.960Z,20.0
2023-04-02T11:55:30.862Z,20.0
2023-04-02T12:15:30.787Z,20.0
2023-04-02T12:35:30.769Z,20.1
2023-04-02T12:55:30.785Z,20.1
2023-04-02T13:15:30.730Z,20.1
2023-04-02T13:35:30.741Z,20.1
2023-04-02T13:55:30.714Z,20.1
2023-04-02T14:15:30.678Z,20.1
2023-04-02T14:35:30.717Z,20.1
2023-04-02T14:55:30.619Z,20.1
2023-04-02T15:15:30.614Z,20.1
2023-04-02T15:35:30.686Z,20.2
2023-04-02T15:55:30.609Z,20.2
2023-04-02T16:15:30.582Z,20.2
2023-04-02T16:35:30.488Z,20.2
2023-04-02T16:55:30.476Z,20.2
2023-04-02T17:15:30.455Z,20.2
2023-04-02T17:35:30.386Z,20.2
2023-04-02T17:55:30.398Z,20.2
2023-04-02T18:15:30.377Z,20.4
2023-04-02T18:35:30.334Z,20.4
2023-04-02T18:55:30.341Z,20.3
2023-04-02T19:15:30.259Z,20.2
2023-04-02T19:35:30.321Z,20.1
2023-04-02T19:55:30.316Z,20.0
2023-04-02T20:15:30.345Z,19.9
2023-04-02T20:35:30.348Z,19.8
2023-04-02T20:55:30.272Z,19.7
2023-04-02T21:15:30.348Z,19.6
2023-04-02T21:35:30.108Z,19.6
2023-04-02T21:55:30.269Z,19.5
2023-04-02T22:15:30.059Z,19.4
2023-04-02T22:35:30.236Z,19.4
2023-04-02T22:55:30.102Z,19.3
2023-04-02T23:35:30.113Z,19.3
2023-04-02T23:55:30.101Z,19.2
